Ettrick, WI (54627)

12:18 PM CDT on April 25, 2015 (GMT -0500)
Black Oak | | Change Station
CLOSE
Current Station
Personal Weather Station
Location: Mindoro, WI
Elevation: 781 ft
Nearby Weather Stations

Elev 781 ft 44.06 °N, 91.15 °W | Updated 4 minutes ago

Overcast
Overcast
52.2 °F
Feels Like 52.2 °F
N
11.4
Wind Variable Wind from South
Gusts 13.6 mph

Today
High -- | Low -- °F
--% Chance of Precip.
Yesterday
High -- | Low -- °F
Precip. -- in
6:05 AM 8:01 PM
Waxing Crescent, 47% visible
Pressure 29.86 in
Visibility 10.0 miles
Clouds Few 2400 ft
Mostly Cloudy 5500 ft
Overcast 7500 ft
Dew Point 41 °F
Humidity 65%
Rainfall 0.00 in
Snow Depth Not available.
UV 3 out of 12
Pollen 8.50 out of 12
Air Quality Not available.
Flu Activity Local Activity
METAR KLSE 251653Z 07010KT 10SM FEW024 BKN055 OVC075 10/03 A2984 RMK AO2 SLP109 T01000028

More Conditions Fewer Conditions

Pressure 29.86 in
Visibility 10.0 miles
Clouds Few 2400 ft
Mostly Cloudy 5500 ft
Overcast 7500 ft
Dew Point 41 °F
Humidity 65%
Rainfall 0.00 in
Snow Depth Not available.
UV 3 out of 12
Pollen 8.50 out of 12
Air Quality Not available.
Flu Activity Local Activity
METAR KLSE 251653Z 07010KT 10SM FEW024 BKN055 OVC075 10/03 A2984 RMK AO2 SLP109 T01000028

More Conditions Fewer Conditions

10-Day Weather Forecast

Almanac

Astronomy

Apr. 25, 2015 Rise Set
Actual Time
Civil Twilight
Nautical Twilight
Astronomical Twilight
Moon
Length of Visible Light
Length of Day
Tomorrow will be .
, % of the Moon is Illuminated

Today's Extremes

State Highs State Lows

Community

WunderPhotos

Upload Photos

1,816,747 photos uploaded!

WunderBlogs® & News

Nearby

Air Quality

  Air Quality AQ Index Pollutant
Not available.

Snow Depth

Station Depth Elevation

Earthquake Activity

City Distance Mag. Time & Date
Minimum magnitude displayed is 2.5.

Coastal Water Temperatures

Place Temperature

Stations

Nearby Weather Stations

Station Location Temp. Windchill Dew Point Humidity Wind Precip. Elev Updated Type